Time;durP1;ratioP1;P1;durP2;ratioP2;P2;SDS_P1;SDS_P2;PMS_P1;PMS_P2;Temp;Humidity;BMP_temperature;BMP_pressure;BME280_temperature;BME280_humidity;BME280_pressure;Samples;Min_cycle;Max_cycle;Signal;HPM_P1;HPM_P2
2021/12/17 00:01:00;;;;;;;25.40;8.43;;;;;;;6.64;100.00;104156.41;5004242;28;20034;-81
2021/12/17 00:03:36;;;;;;;23.35;8.10;;;;;;;6.65;100.00;104157.28;5017227;28;20137;-81
2021/12/17 00:08:36;;;;;;;28.20;8.98;;;;;;;6.66;100.00;104156.44;5019745;28;20101;-81
2021/12/17 00:11:02;;;;;;;27.73;8.73;;;;;;;6.68;100.00;104157.38;4999283;28;20080;-81
2021/12/17 00:13:27;;;;;;;30.80;9.32;;;;;;;6.67;100.00;104153.84;5020998;28;20041;-82
2021/12/17 00:15:53;;;;;;;30.98;9.57;;;;;;;6.69;100.00;104161.72;5019816;28;20252;-81
2021/12/17 00:18:33;;;;;;;26.67;8.98;;;;;;;6.68;100.00;104158.25;5036543;28;20042;-82
2021/12/17 00:48:36;;;;;;;33.15;11.43;;;;;;;6.72;100.00;104165.31;5000368;28;20065;-81
2021/12/17 00:53:41;;;;;;;22.73;10.10;;;;;;;6.76;100.00;104154.97;5010881;28;20232;-81
2021/12/17 00:56:07;;;;;;;25.83;10.15;;;;;;;6.78;100.00;104153.28;5001936;28;20063;-81
2021/12/17 00:58:32;;;;;;;25.67;9.60;;;;;;;6.78;100.00;104161.09;5018473;28;20041;-81
2021/12/17 01:00:58;;;;;;;20.40;8.93;;;;;;;6.80;100.00;104167.25;5019768;28;20030;-81
2021/12/17 01:03:23;;;;;;;25.38;9.68;;;;;;;6.81;100.00;104167.28;5019493;28;20041;-81
2021/12/17 01:05:48;;;;;;;22.80;9.20;;;;;;;6.82;100.00;104162.94;5001392;28;20336;-81
2021/12/17 01:08:14;;;;;;;27.80;10.38;;;;;;;6.82;100.00;104158.66;4983801;28;20042;-81
2021/12/17 01:10:58;;;;;;;25.73;10.00;;;;;;;6.82;100.00;104156.03;4966924;28;20380;-81
2021/12/17 01:13:23;;;;;;;29.52;10.25;;;;;;;6.83;100.00;104160.41;5000293;28;20218;-81
2021/12/17 01:15:49;;;;;;;29.35;9.63;;;;;;;6.83;100.00;104157.78;4984389;28;20029;-81
2021/12/17 01:18:17;;;;;;;29.25;10.00;;;;;;;6.84;100.00;104162.19;5002490;28;20359;-81
2021/12/17 01:36:37;;;;;;;25.98;10.93;;;;;;;6.83;100.00;104155.19;4999350;28;20034;-81
2021/12/17 01:44:15;;;;;;;19.20;10.38;;;;;;;6.86;100.00;104151.81;5012729;28;20287;-81
2021/12/17 01:46:41;;;;;;;22.67;11.32;;;;;;;6.86;100.00;104152.69;4967389;28;20022;-81
2021/12/17 01:59:52;;;;;;;29.75;12.68;;;;;;;6.84;100.00;104154.34;4988418;28;20391;-81
2021/12/17 02:02:18;;;;;;;28.52;12.75;;;;;;;6.85;99.84;104150.91;4967242;28;20330;-81
2021/12/17 02:04:44;;;;;;;37.22;14.07;;;;;;;6.86;99.84;104160.50;4983837;28;20090;-81
2021/12/17 02:07:09;;;;;;;36.85;12.73;;;;;;;6.87;99.77;104153.53;4982834;28;20060;-81
2021/12/17 02:28:42;;;;;;;46.10;16.45;;;;;;;6.88;99.73;104147.50;5000386;28;20030;-81
2021/12/17 02:28:56;;;;;;;40.90;15.45;;;;;;;6.88;99.73;104142.31;5018319;28;20060;-81
2021/12/17 02:33:50;;;;;;;50.65;17.55;;;;;;;6.87;99.55;104137.91;4999691;28;20058;-81
2021/12/17 02:36:19;;;;;;;40.85;15.48;;;;;;;6.88;100.00;104139.69;5005402;28;20137;-81
2021/12/17 02:38:44;;;;;;;39.30;17.33;;;;;;;6.91;99.65;104139.75;4983374;28;20050;-82
2021/12/17 02:46:38;;;;;;;47.30;17.40;;;;;;;6.91;99.76;104140.66;5018271;28;20109;-82
2021/12/17 02:49:03;;;;;;;49.83;19.20;;;;;;;6.90;99.82;104138.00;5013240;28;20034;-81
2021/12/17 02:51:29;;;;;;;46.85;18.20;;;;;;;6.90;99.75;104149.31;4999218;28;20092;-81
2021/12/17 02:53:54;;;;;;;52.55;19.52;;;;;;;6.89;99.80;104147.56;4982707;28;20040;-81
2021/12/17 02:56:21;;;;;;;50.35;20.38;;;;;;;6.88;99.84;104151.00;5017604;28;20042;-81
2021/12/17 02:58:47;;;;;;;59.38;20.80;;;;;;;6.88;100.00;104150.13;5002526;28;20245;-82
2021/12/17 03:01:12;;;;;;;58.42;22.15;;;;;;;6.87;100.00;104144.00;5009418;28;20022;-82
2021/12/17 03:03:38;;;;;;;51.47;20.75;;;;;;;6.87;100.00;104143.13;5001097;28;20037;-82
2021/12/17 03:06:04;;;;;;;52.03;20.58;;;;;;;6.90;100.00;104151.03;4990677;28;20333;-82
2021/12/17 03:08:29;;;;;;;54.67;23.08;;;;;;;6.91;100.00;104142.38;5001774;28;20033;-82
2021/12/17 03:10:55;;;;;;;47.35;21.63;;;;;;;6.90;100.00;104140.63;5020010;28;20033;-82
2021/12/17 03:13:22;;;;;;;52.38;23.90;;;;;;;6.90;100.00;104133.66;4997139;28;20026;-82
2021/12/17 03:17:00;;;;;;;53.80;24.55;;;;;;;6.89;100.00;104136.22;4982856;28;20084;-81
2021/12/17 03:23:54;;;;;;;50.88;24.38;;;;;;;6.90;100.00;104135.41;4988911;28;20404;-81
2021/12/17 03:26:21;;;;;;;55.65;26.33;;;;;;;6.90;100.00;104133.66;5010974;28;20049;-81
2021/12/17 03:28:51;;;;;;;46.80;24.88;;;;;;;6.92;100.00;104137.19;5021093;28;20044;-81
2021/12/17 03:31:16;;;;;;;48.40;24.67;;;;;;;6.94;100.00;104133.75;4997667;28;20034;-81
2021/12/17 03:33:43;;;;;;;48.58;25.80;;;;;;;6.95;100.00;104145.94;4984901;28;20074;-81
2021/12/17 03:36:11;;;;;;;50.67;26.33;;;;;;;6.97;100.00;104150.38;4986249;28;20038;-81
2021/12/17 03:38:37;;;;;;;63.43;27.77;;;;;;;6.97;100.00;104150.38;5001668;28;20203;-81
2021/12/17 03:41:19;;;;;;;49.20;26.92;;;;;;;6.99;100.00;104148.69;4971013;28;20329;-81
2021/12/17 03:43:45;;;;;;;57.70;27.85;;;;;;;6.99;100.00;104142.59;5002525;28;20203;-82
2021/12/17 03:46:10;;;;;;;62.60;28.63;;;;;;;6.99;100.00;104142.59;4990825;28;20084;-82
2021/12/17 03:48:38;;;;;;;58.10;27.13;;;;;;;6.99;100.00;104138.25;5003039;28;20042;-82
2021/12/17 03:51:04;;;;;;;67.47;30.50;;;;;;;6.99;100.00;104143.47;4985921;28;20381;-82
2021/12/17 03:53:30;;;;;;;66.43;31.05;;;;;;;7.00;100.00;104134.78;5008796;28;20061;-81
2021/12/17 03:55:55;;;;;;;73.13;32.17;;;;;;;7.01;100.00;104136.56;5006038;28;20107;-81
2021/12/17 03:58:21;;;;;;;71.05;31.90;;;;;;;7.01;100.00;104135.69;5012509;28;20101;-82
2021/12/17 04:00:46;;;;;;;76.00;32.10;;;;;;;7.01;100.00;104144.38;5019955;28;20806;-82
2021/12/17 04:03:12;;;;;;;76.43;32.15;;;;;;;7.02;100.00;104151.38;5003603;28;20324;-82
2021/12/17 04:05:37;;;;;;;61.08;28.50;;;;;;;7.01;100.00;104146.13;5019235;28;20257;-82
2021/12/17 04:08:03;;;;;;;74.22;31.65;;;;;;;6.99;100.00;104148.69;5001870;28;20061;-82
2021/12/17 04:10:38;;;;;;;62.63;28.40;;;;;;;6.99;100.00;104155.63;4967518;28;20210;-82
2021/12/17 04:13:14;;;;;;;89.72;35.05;;;;;;;6.98;100.00;104152.13;5002466;28;20371;-82
2021/12/17 04:15:42;;;;;;;92.45;34.70;;;;;;;6.97;100.00;104157.28;5000886;28;20046;-81
2021/12/17 04:18:10;;;;;;;94.07;35.08;;;;;;;6.97;100.00;104163.41;5030821;28;20233;-81
2021/12/17 04:20:36;;;;;;;84.47;33.65;;;;;;;6.97;100.00;104150.38;5018544;28;20026;-81
2021/12/17 04:23:01;;;;;;;85.88;31.90;;;;;;;6.96;100.00;104156.41;5018523;28;20049;-81
2021/12/17 04:25:28;;;;;;;87.45;33.92;;;;;;;6.96;100.00;104156.41;5019503;28;20083;-81
2021/12/17 04:27:55;;;;;;;76.35;30.25;;;;;;;6.97;100.00;104159.88;4998044;28;20233;-81
2021/12/17 04:30:20;;;;;;;78.70;32.28;;;;;;;6.97;100.00;104155.56;5002822;28;20113;-81
2021/12/17 04:32:48;;;;;;;70.28;31.38;;;;;;;6.98;100.00;104151.25;5018574;28;20345;-81
2021/12/17 04:35:13;;;;;;;70.53;29.05;;;;;;;6.97;100.00;104157.28;5010290;28;20046;-81
2021/12/17 04:37:38;;;;;;;77.60;30.33;;;;;;;6.96;100.00;104163.34;4993346;28;20032;-81
2021/12/17 04:40:04;;;;;;;68.35;28.65;;;;;;;6.96;100.00;104168.56;5002826;28;20236;-81
2021/12/17 04:42:56;;;;;;;63.10;27.38;;;;;;;6.97;100.00;104165.09;5013502;28;20041;-81
2021/12/17 04:45:23;;;;;;;61.15;27.42;;;;;;;6.96;100.00;104160.75;4989554;28;20026;-82
2021/12/17 04:58:44;;;;;;;39.58;19.33;;;;;;;6.93;100.00;104158.94;5013421;28;20598;-81
2021/12/17 05:01:13;;;;;;;37.90;18.38;;;;;;;6.92;100.00;104154.56;4999209;28;20038;-81
2021/12/17 05:03:39;;;;;;;40.10;19.15;;;;;;;6.91;100.00;104147.56;5012976;28;20052;-81
2021/12/17 05:06:04;;;;;;;38.67;18.70;;;;;;;6.90;100.00;104156.25;5002377;28;20045;-81
2021/12/17 05:08:30;;;;;;;39.33;19.25;;;;;;;6.90;100.00;104148.44;4989366;28;20386;-81
2021/12/17 05:19:28;;;;;;;39.40;18.88;;;;;;;6.89;100.00;104157.97;5014979;28;20084;-81
2021/12/17 05:21:54;;;;;;;38.03;17.35;;;;;;;6.85;100.00;104156.09;4998928;28;20035;-81
2021/12/17 05:24:19;;;;;;;31.92;15.10;;;;;;;6.86;100.00;104157.88;4999272;28;20383;-81
2021/12/17 05:26:44;;;;;;;29.63;15.15;;;;;;;6.84;100.00;104158.66;5017965;28;20049;-81
2021/12/17 05:29:10;;;;;;;29.35;14.35;;;;;;;6.84;100.00;104145.63;4978352;28;20286;-81
2021/12/17 05:31:35;;;;;;;22.42;12.10;;;;;;;6.84;100.00;104156.97;4998679;28;20026;-81
2021/12/17 05:34:01;;;;;;;25.80;12.30;;;;;;;6.84;100.00;104148.25;4982937;28;20072;-81
2021/12/17 05:36:26;;;;;;;33.25;12.40;;;;;;;6.82;100.00;104140.41;5011402;28;20030;-81
2021/12/17 05:38:52;;;;;;;28.73;13.00;;;;;;;6.82;100.00;104142.09;5006513;28;20030;-81
2021/12/17 05:41:17;;;;;;;23.98;12.57;;;;;;;6.82;100.00;104139.50;4990024;28;20041;-81
2021/12/17 05:43:43;;;;;;;25.77;11.85;;;;;;;6.82;100.00;104150.84;5018400;28;20041;-81
2021/12/17 05:48:34;;;;;;;34.78;13.25;;;;;;;6.83;100.00;104156.91;5010335;28;20263;-81
2021/12/17 05:51:01;;;;;;;30.02;12.63;;;;;;;6.82;100.00;104161.25;4998671;28;20101;-81
2021/12/17 05:53:27;;;;;;;33.33;13.45;;;;;;;6.82;100.00;104162.94;4987511;28;20034;-82
2021/12/17 05:55:55;;;;;;;36.20;14.25;;;;;;;6.83;100.00;104170.81;5000535;28;20100;-81
2021/12/17 05:58:20;;;;;;;30.52;13.57;;;;;;;6.84;100.00;104164.78;5011915;28;20097;-81
2021/12/17 06:00:46;;;;;;;31.90;13.57;;;;;;;6.84;100.00;104161.28;5001320;28;20371;-81
2021/12/17 06:03:11;;;;;;;33.55;13.35;;;;;;;6.84;100.00;104158.66;5015522;28;20064;-81
2021/12/17 06:05:37;;;;;;;32.47;13.82;;;;;;;6.85;100.00;104157.84;4999643;28;20333;-81
2021/12/17 06:08:03;;;;;;;33.40;15.65;;;;;;;6.84;100.00;104163.88;5013670;28;20097;-81
2021/12/17 06:10:28;;;;;;;41.03;16.13;;;;;;;6.84;100.00;104159.56;4999129;28;20084;-81
2021/12/17 06:12:54;;;;;;;33.08;14.82;;;;;;;6.86;100.00;104170.91;4989135;28;20042;-81
2021/12/17 06:15:20;;;;;;;25.52;12.35;;;;;;;6.87;100.00;104171.78;5002512;28;20041;-81
2021/12/17 06:17:46;;;;;;;29.20;13.40;;;;;;;6.85;100.00;104174.34;5001097;28;20048;-81
2021/12/17 06:20:12;;;;;;;34.80;13.88;;;;;;;6.86;100.00;104180.47;4999395;28;20023;-81
2021/12/17 06:22:37;;;;;;;30.63;13.20;;;;;;;6.85;100.00;104182.16;4965205;28;20030;-81
2021/12/17 06:25:04;;;;;;;34.50;13.90;;;;;;;6.86;100.00;104189.16;5010390;28;20049;-81
2021/12/17 06:27:29;;;;;;;32.40;12.52;;;;;;;6.85;100.00;104181.28;5003295;28;20052;-82
2021/12/17 06:29:55;;;;;;;37.47;13.88;;;;;;;6.85;100.00;104186.50;5000798;28;20034;-82
2021/12/17 06:32:21;;;;;;;32.70;12.68;;;;;;;6.85;100.00;104187.38;4977335;28;20352;-83
2021/12/17 06:34:46;;;;;;;32.25;13.93;;;;;;;6.87;100.00;104187.41;4976035;28;20069;-82
2021/12/17 06:37:12;;;;;;;31.58;14.10;;;;;;;6.87;100.00;104190.03;4998231;28;20038;-82
2021/12/17 06:39:37;;;;;;;35.58;14.07;;;;;;;6.87;100.00;104188.28;4982930;28;20095;-82
2021/12/17 06:42:04;;;;;;;35.78;14.77;;;;;;;6.88;100.00;104191.81;5002076;28;20033;-82
2021/12/17 06:44:29;;;;;;;45.08;15.18;;;;;;;6.88;100.00;104191.81;5021403;28;20056;-82
2021/12/17 06:47:10;;;;;;;39.13;14.82;;;;;;;6.90;100.00;104201.41;5022273;28;20045;-82
2021/12/17 06:58:27;;;;;;;38.20;15.10;;;;;;;6.92;100.00;104193.66;5019753;28;20372;-82
2021/12/17 07:06:06;;;;;;;45.88;14.35;;;;;;;6.96;100.00;104178.97;5008570;28;20133;-82
2021/12/17 07:11:51;;;;;;;44.45;14.32;;;;;;;6.95;100.00;104192.84;5008010;28;20062;-83
2021/12/17 07:31:50;;;;;;;44.47;14.52;;;;;;;7.03;100.00;104210.47;5009284;28;20218;-83
2021/12/17 07:35:47;;;;;;;49.42;15.60;;;;;;;7.01;100.00;104204.34;5009380;28;20262;-83
2021/12/17 07:40:57;;;;;;;41.95;13.52;;;;;;;7.02;100.00;104208.72;5019240;28;20080;-83
2021/12/17 07:43:38;;;;;;;49.80;15.38;;;;;;;7.03;100.00;104213.06;5029538;28;20033;-83
2021/12/17 07:46:06;;;;;;;47.90;14.82;;;;;;;7.05;100.00;104215.72;5014248;28;20068;-83
2021/12/17 07:48:32;;;;;;;53.55;16.67;;;;;;;7.07;100.00;104219.25;5013527;28;20248;-83
2021/12/17 07:50:58;;;;;;;45.35;14.00;;;;;;;7.07;100.00;104221.84;5019548;28;20025;-83
2021/12/17 07:53:24;;;;;;;47.42;15.32;;;;;;;7.09;100.00;104222.78;4999221;28;20034;-83
2021/12/17 07:55:49;;;;;;;43.17;13.52;;;;;;;7.09;100.00;104228.91;5017719;28;20069;-83
2021/12/17 07:58:15;;;;;;;46.92;15.27;;;;;;;7.11;100.00;104224.59;5003693;28;20037;-83
2021/12/17 08:00:40;;;;;;;41.33;13.75;;;;;;;7.11;100.00;104219.41;5019658;28;20060;-82
2021/12/17 08:03:06;;;;;;;46.13;15.52;;;;;;;7.15;100.00;104229.88;5009485;28;20044;-83
2021/12/17 08:05:31;;;;;;;49.45;14.52;;;;;;;7.16;100.00;104229.06;5014525;28;20041;-83
2021/12/17 08:07:57;;;;;;;44.67;12.77;;;;;;;7.14;100.00;104230.75;5015588;28;20030;-82
2021/12/17 08:10:22;;;;;;;35.45;12.70;;;;;;;7.12;100.00;104233.31;5017337;28;20066;-82
2021/12/17 08:12:47;;;;;;;44.55;13.60;;;;;;;7.13;100.00;104229.88;5001246;28;20049;-82
2021/12/17 08:15:14;;;;;;;40.33;12.82;;;;;;;7.16;100.00;104236.88;5021735;28;20367;-82
2021/12/17 08:18:03;;;;;;;35.13;11.95;;;;;;;7.15;100.00;104236.00;4999288;28;20034;-82
2021/12/17 08:26:09;;;;;;;32.83;11.60;;;;;;;7.09;100.00;104228.91;5004582;28;20064;-82
2021/12/17 08:29:06;;;;;;;41.90;13.00;;;;;;;7.09;100.00;104234.13;4999638;28;20045;-82
2021/12/17 08:31:23;;;;;;;37.63;12.38;;;;;;;7.10;100.00;104235.84;5010495;28;20046;-82
2021/12/17 08:33:49;;;;;;;30.63;11.35;;;;;;;7.10;100.00;104237.59;5012352;28;20065;-82
2021/12/17 08:36:17;;;;;;;31.90;12.57;;;;;;;7.09;100.00;104230.59;5017624;28;20037;-82
2021/12/17 08:38:43;;;;;;;42.80;13.13;;;;;;;7.09;100.00;104230.59;5014090;28;20358;-82
2021/12/17 08:41:09;;;;;;;32.00;11.20;;;;;;;7.08;100.00;104221.03;5004202;28;20117;-82
2021/12/17 08:43:34;;;;;;;32.72;11.02;;;;;;;7.08;100.00;104227.13;5004453;28;20068;-82
2021/12/17 08:46:00;;;;;;;32.78;11.27;;;;;;;7.09;100.00;104218.47;5021115;28;20225;-82
2021/12/17 08:48:25;;;;;;;33.60;11.70;;;;;;;7.10;100.00;104220.22;5020922;28;20042;-82
2021/12/17 08:50:51;;;;;;;35.10;11.10;;;;;;;7.13;100.00;104235.09;5015850;28;20026;-82
2021/12/17 08:53:16;;;;;;;37.53;12.40;;;;;;;7.15;100.00;104229.88;5021250;28;20046;-82
2021/12/17 08:55:42;;;;;;;30.88;11.07;;;;;;;7.16;100.00;104222.13;5021447;28;20101;-82
2021/12/17 08:58:12;;;;;;;35.33;11.85;;;;;;;7.17;100.00;104218.69;5017668;28;20289;-82
2021/12/17 09:00:37;;;;;;;32.13;11.43;;;;;;;7.17;100.00;104213.47;4990832;28;20042;-82
2021/12/17 09:03:03;;;;;;;31.08;10.45;;;;;;;7.19;100.00;104223.94;5016547;28;20080;-82
2021/12/17 09:05:28;;;;;;;26.85;10.23;;;;;;;7.19;100.00;104232.63;5003468;28;20030;-82
2021/12/17 09:07:54;;;;;;;36.17;12.05;;;;;;;7.20;100.00;104237.00;5016482;28;20345;-82
2021/12/17 09:10:22;;;;;;;33.25;11.55;;;;;;;7.21;100.00;104240.50;4993188;28;20034;-82
2021/12/17 09:12:48;;;;;;;30.80;11.73;;;;;;;7.22;100.00;104230.13;5004505;28;20328;-82
2021/12/17 09:15:14;;;;;;;37.00;11.85;;;;;;;7.23;100.00;104228.38;5003955;28;20276;-82
2021/12/17 09:17:39;;;;;;;34.97;11.52;;;;;;;7.24;100.00;104232.75;5018957;28;20025;-82
2021/12/17 09:20:06;;;;;;;32.10;10.88;;;;;;;7.25;100.00;104235.41;5004072;28;20033;-82
2021/12/17 09:22:32;;;;;;;32.28;10.57;;;;;;;7.27;100.00;104232.84;4998902;28;20030;-82
2021/12/17 09:24:57;;;;;;;29.45;10.80;;;;;;;7.26;100.00;104231.97;5000490;28;20029;-82
2021/12/17 09:27:23;;;;;;;31.65;10.25;;;;;;;7.28;100.00;104230.28;5015575;28;20026;-82
2021/12/17 09:29:48;;;;;;;34.67;11.05;;;;;;;7.29;100.00;104231.16;5004548;28;20060;-82
2021/12/17 09:32:14;;;;;;;22.40;8.85;;;;;;;7.29;100.00;104234.66;5006167;28;20374;-82
2021/12/17 09:34:39;;;;;;;28.05;9.85;;;;;;;7.32;100.00;104243.41;4978738;28;20238;-82
2021/12/17 09:37:06;;;;;;;21.88;8.73;;;;;;;7.33;100.00;104234.72;5020365;28;20128;-82
2021/12/17 09:39:31;;;;;;;20.60;8.73;;;;;;;7.32;100.00;104249.50;5012721;28;20050;-82
2021/12/17 09:41:57;;;;;;;27.38;9.90;;;;;;;7.35;100.00;104248.69;4992924;28;20038;-82
2021/12/17 09:44:22;;;;;;;28.42;10.25;;;;;;;7.35;100.00;104248.69;5005154;28;20033;-82
2021/12/17 09:46:48;;;;;;;22.30;8.65;;;;;;;7.36;100.00;104248.72;5006581;28;20112;-82
2021/12/17 09:49:15;;;;;;;23.77;9.05;;;;;;;7.36;100.00;104251.34;5013295;28;20025;-82
2021/12/17 09:51:40;;;;;;;21.52;8.48;;;;;;;7.37;100.00;104252.22;5009398;28;20204;-82
2021/12/17 09:54:06;;;;;;;19.33;7.75;;;;;;;7.36;100.00;104256.56;5016100;28;20196;-83
2021/12/17 09:56:32;;;;;;;21.13;8.73;;;;;;;7.39;100.00;104263.59;5015896;28;20025;-81
2021/12/17 09:58:58;;;;;;;25.63;8.68;;;;;;;7.38;100.00;104265.28;5011191;28;20326;-83
2021/12/17 10:01:23;;;;;;;19.92;8.18;;;;;;;7.39;100.00;104269.69;4998075;28;20033;-83
2021/12/17 10:04:21;;;;;;;22.80;8.77;;;;;;;7.41;100.00;104264.53;5018423;28;20038;-83
2021/12/17 10:06:47;;;;;;;20.02;8.55;;;;;;;7.42;100.00;104266.25;5000992;28;20042;-83
2021/12/17 10:09:14;;;;;;;22.35;8.57;;;;;;;7.44;100.00;104267.19;4999486;28;20021;-83
2021/12/17 10:11:59;;;;;;;22.83;8.18;;;;;;;7.43;100.00;104266.31;5015626;28;20053;-83
2021/12/17 10:14:24;;;;;;;19.38;7.95;;;;;;;7.44;100.00;104268.09;5009337;28;20029;-83
2021/12/17 10:16:50;;;;;;;19.13;8.80;;;;;;;7.45;100.00;104269.84;5020053;28;20033;-83
2021/12/17 10:19:41;;;;;;;17.05;8.35;;;;;;;7.46;100.00;104275.97;5014103;28;20018;-83
2021/12/17 10:22:10;;;;;;;18.27;8.07;;;;;;;7.45;100.00;104279.41;5020501;28;20100;-83
2021/12/17 10:24:36;;;;;;;16.27;7.47;;;;;;;7.45;100.00;104277.66;5000794;28;20025;-83
2021/12/17 10:27:20;;;;;;;19.17;8.13;;;;;;;7.44;100.00;104275.91;5009438;28;20129;-83
2021/12/17 10:29:46;;;;;;;17.88;7.55;;;;;;;7.44;100.00;104281.13;5017869;28;20040;-83
2021/12/17 10:32:19;;;;;;;20.05;8.30;;;;;;;7.46;100.00;104287.28;5015192;28;20053;-83
2021/12/17 10:35:05;;;;;;;14.75;6.53;;;;;;;7.47;100.00;104290.75;4995526;28;20049;-83
2021/12/17 10:37:32;;;;;;;16.17;8.02;;;;;;;7.47;100.00;104285.53;5005653;28;20046;-83
2021/12/17 10:39:58;;;;;;;11.25;5.88;;;;;;;7.46;100.00;104282.06;4997104;28;20127;-83
2021/12/17 10:42:32;;;;;;;12.70;5.78;;;;;;;7.45;100.00;104285.50;5015642;28;20046;-83
2021/12/17 10:45:05;;;;;;;9.48;4.95;;;;;;;7.47;100.00;104289.03;5014834;28;20057;-83
2021/12/17 10:47:34;;;;;;;12.60;6.30;;;;;;;7.47;100.00;104286.41;4992610;28;20364;-83
2021/12/17 10:50:02;;;;;;;12.85;5.28;;;;;;;7.47;100.00;104283.81;4994122;28;20045;-83
2021/12/17 10:52:41;;;;;;;10.70;5.13;;;;;;;7.48;100.00;104295.16;4995304;28;20038;-83
2021/12/17 10:55:16;;;;;;;7.82;4.63;;;;;;;7.48;99.95;104284.72;5014303;28;20030;-83
2021/12/17 10:57:43;;;;;;;10.10;4.55;;;;;;;7.49;99.76;104289.06;4981709;28;20266;-83
2021/12/17 11:00:09;;;;;;;7.22;4.70;;;;;;;7.50;100.00;104290.84;4996910;28;20034;-83
2021/12/17 11:02:36;;;;;;;11.00;4.82;;;;;;;7.49;99.72;104287.38;5012779;28;20317;-83
2021/12/17 11:05:12;;;;;;;8.63;4.78;;;;;;;7.51;99.72;104284.78;4996220;28;20026;-83
2021/12/17 11:07:38;;;;;;;7.00;4.45;;;;;;;7.53;99.81;104284.81;4999511;28;20045;-83
2021/12/17 11:10:04;;;;;;;11.57;5.00;;;;;;;7.54;99.58;104284.88;5007319;28;20060;-83
2021/12/17 11:12:40;;;;;;;11.50;4.78;;;;;;;7.55;99.38;104277.91;5014431;28;20064;-83
2021/12/17 11:15:23;;;;;;;13.80;4.90;;;;;;;7.55;99.37;104278.81;4999851;28;20033;-83
2021/12/17 11:18:00;;;;;;;8.68;4.50;;;;;;;7.57;99.32;104281.47;4979445;28;20042;-83
2021/12/17 11:20:26;;;;;;;6.78;4.03;;;;;;;7.57;99.34;104276.25;5027231;28;20041;-83
2021/12/17 11:22:53;;;;;;;8.48;4.63;;;;;;;7.57;99.21;104282.34;5008720;28;20042;-83
2021/12/17 11:25:19;;;;;;;6.40;4.30;;;;;;;7.58;99.35;104280.63;5012498;28;20045;-83
2021/12/17 11:27:44;;;;;;;6.95;3.95;;;;;;;7.56;99.08;104269.25;4998312;28;20065;-83
2021/12/17 11:30:15;;;;;;;8.40;4.18;;;;;;;7.56;99.04;104269.25;4998718;28;20029;-83
2021/12/17 11:32:42;;;;;;;5.78;3.92;;;;;;;7.56;98.96;104277.09;4996004;28;20152;-82
2021/12/17 11:35:07;;;;;;;5.25;3.40;;;;;;;7.55;99.03;104270.09;5016682;28;20388;-82
2021/12/17 11:37:33;;;;;;;4.45;3.42;;;;;;;7.55;98.96;104271.00;5017750;28;20041;-82
2021/12/17 11:40:01;;;;;;;7.10;3.17;;;;;;;7.56;98.89;104266.66;5019468;28;20061;-82
2021/12/17 11:42:48;;;;;;;4.63;3.22;;;;;;;7.55;98.73;104267.47;5021634;28;20232;-82
2021/12/17 11:45:25;;;;;;;3.95;2.42;;;;;;;7.54;98.59;104261.38;5012527;28;20045;-82
2021/12/17 11:47:57;;;;;;;3.22;2.28;;;;;;;7.54;98.55;104252.69;5023806;28;20379;-82
2021/12/17 11:50:22;;;;;;;3.03;2.05;;;;;;;7.55;98.31;104262.25;5018637;28;20034;-82
2021/12/17 11:52:51;;;;;;;4.28;2.45;;;;;;;7.55;98.27;104267.47;4997208;28;20053;-82
2021/12/17 11:55:25;;;;;;;2.33;2.10;;;;;;;7.55;98.14;104259.66;5001922;28;20056;-82
2021/12/17 11:57:55;;;;;;;3.40;2.53;;;;;;;7.54;98.13;104255.31;5001690;28;20042;-82
2021/12/17 12:00:25;;;;;;;5.15;3.00;;;;;;;7.53;97.69;104251.81;5018733;28;20324;-82
2021/12/17 12:02:53;;;;;;;4.82;3.72;;;;;;;7.54;98.01;104255.31;5016116;28;20045;-82
2021/12/17 12:05:36;;;;;;;4.57;3.00;;;;;;;7.54;97.79;104253.56;5013601;28;20038;-82
2021/12/17 12:08:46;;;;;;;3.38;3.05;;;;;;;7.54;97.84;104257.91;5002158;28;20037;-82
2021/12/17 12:11:22;;;;;;;4.07;3.08;;;;;;;7.53;97.63;104258.72;5019564;28;20085;-82
2021/12/17 12:13:51;;;;;;;4.70;3.90;;;;;;;7.51;97.30;104256.06;5016407;28;20319;-82
2021/12/17 12:16:24;;;;;;;3.63;2.90;;;;;;;7.49;97.33;104249.94;5011464;28;20347;-82
2021/12/17 12:19:16;;;;;;;6.93;3.50;;;;;;;7.48;97.37;104256.91;5011749;28;20038;-82
2021/12/17 12:21:41;;;;;;;4.72;3.40;;;;;;;7.47;97.22;104260.34;5015773;28;20299;-82
2021/12/17 12:24:14;;;;;;;4.45;3.55;;;;;;;7.47;97.24;104262.06;5018558;28;20061;-82
2021/12/17 12:26:42;;;;;;;4.32;3.60;;;;;;;7.47;97.47;104256.84;4992923;28;20029;-82
2021/12/17 12:29:18;;;;;;;5.38;3.83;;;;;;;7.45;97.31;104259.41;5016620;28;20037;-82
2021/12/17 12:31:46;;;;;;;4.00;3.45;;;;;;;7.46;97.23;104273.34;5014869;28;20034;-82
2021/12/17 12:34:21;;;;;;;5.03;3.90;;;;;;;7.43;97.07;104266.31;5017280;28;20096;-82
2021/12/17 12:36:47;;;;;;;4.38;3.92;;;;;;;7.42;97.02;104271.47;5015848;28;20600;-82
2021/12/17 12:39:19;;;;;;;6.72;4.25;;;;;;;7.40;97.16;104268.81;5019969;28;20025;-82
2021/12/17 12:42:04;;;;;;;4.90;3.88;;;;;;;7.39;97.02;104272.28;5020175;28;20038;-82
2021/12/17 12:44:42;;;;;;;5.63;4.30;;;;;;;7.39;97.20;104274.91;5011052;28;20037;-82
2021/12/17 12:47:08;;;;;;;5.75;4.45;;;;;;;7.39;96.96;104280.13;5021456;28;20351;-82
2021/12/17 12:49:49;;;;;;;4.72;3.90;;;;;;;7.39;97.01;104274.91;5016010;28;20366;-82
2021/12/17 12:52:16;;;;;;;5.80;4.40;;;;;;;7.38;96.92;104273.13;5019707;28;20073;-82
2021/12/17 12:54:41;;;;;;;10.55;4.65;;;;;;;7.37;97.13;104266.16;5020982;28;20034;-83
2021/12/17 12:57:06;;;;;;;8.02;5.10;;;;;;;7.37;97.01;104257.44;5018096;28;20041;-82
2021/12/17 12:59:32;;;;;;;8.05;5.53;;;;;;;7.37;97.21;104260.94;5034146;28;20033;-82
2021/12/17 13:01:57;;;;;;;7.75;5.18;;;;;;;7.36;97.23;104259.16;5017836;28;20265;-82
2021/12/17 13:04:23;;;;;;;6.90;5.20;;;;;;;7.37;97.58;104254.81;5015541;28;20376;-82
2021/12/17 13:06:50;;;;;;;7.97;5.35;;;;;;;7.36;97.42;104240.03;4998530;28;20182;-82
2021/12/17 13:09:15;;;;;;;7.32;5.43;;;;;;;7.37;97.38;104241.78;4995541;28;20021;-82
2021/12/17 13:11:44;;;;;;;14.27;4.70;;;;;;;7.34;97.26;104234.78;5015568;28;20329;-82
2021/12/17 13:14:17;;;;;;;7.70;5.18;;;;;;;7.33;97.32;104238.25;5024074;28;20237;-82
2021/12/17 13:16:54;;;;;;;5.38;4.72;;;;;;;7.32;97.11;104240.81;5012403;28;20092;-82
2021/12/17 13:22:25;;;;;;;6.78;4.57;;;;;;;7.32;97.15;104240.81;5014427;28;20117;-81
2021/12/17 13:24:49;;;;;;;6.13;4.30;;;;;;;7.31;97.40;104237.28;5015488;28;20057;-81
2021/12/17 13:27:15;;;;;;;4.05;3.63;;;;;;;7.30;97.24;104240.75;5019653;28;20065;-81
2021/12/17 13:29:43;;;;;;;4.10;3.42;;;;;;;7.30;97.18;104243.38;5019037;28;20037;-81
2021/12/17 13:32:12;;;;;;;5.07;3.57;;;;;;;7.29;97.22;104236.38;5002969;28;20089;-83
2021/12/17 13:34:42;;;;;;;3.78;3.22;;;;;;;7.29;97.19;104226.84;5019820;28;20042;-83
2021/12/17 13:37:24;;;;;;;3.90;3.50;;;;;;;7.29;97.10;104229.44;5019726;28;20042;-83
2021/12/17 13:39:51;;;;;;;4.40;3.17;;;;;;;7.31;97.06;104232.06;5013930;28;20088;-83
2021/12/17 13:42:31;;;;;;;3.10;2.80;;;;;;;7.30;97.15;104235.53;5017603;28;20088;-82
2021/12/17 13:44:57;;;;;;;4.15;2.80;;;;;;;7.30;97.04;104235.53;5002553;28;20269;-83
2021/12/17 13:47:36;;;;;;;3.75;3.28;;;;;;;7.28;97.02;104238.09;5016686;28;20132;-83
2021/12/17 13:50:26;;;;;;;3.13;2.70;;;;;;;7.27;96.80;104230.22;4994551;28;20049;-83
2021/12/17 13:52:58;;;;;;;2.97;2.78;;;;;;;7.27;96.72;104238.94;5000742;28;20029;-83
2021/12/17 13:55:31;;;;;;;4.25;3.08;;;;;;;7.27;96.72;104238.94;5018548;28;20329;-83
2021/12/17 13:57:57;;;;;;;5.38;3.15;;;;;;;7.25;96.74;104238.00;5022569;28;20061;-83
2021/12/17 14:00:33;;;;;;;3.22;3.03;;;;;;;7.25;96.64;104238.00;5025703;28;20386;-83
2021/12/17 14:02:59;;;;;;;3.10;2.72;;;;;;;7.25;96.72;104231.91;5021699;28;20343;-83
2021/12/17 14:05:29;;;;;;;5.90;3.80;;;;;;;7.24;96.75;104231.03;5017018;28;20034;-83
2021/12/17 14:07:59;;;;;;;3.45;3.20;;;;;;;7.26;96.83;104229.34;5015492;28;20265;-83